sensor_id;sensor_type;location;lat;lon;timestamp;P1;durP1;ratioP1;P2;durP2;ratioP2
10045;SDS011;5063;50.878;4.742;2022-12-29T00:02:14;0.87;;;0.87;;
10045;SDS011;5063;50.878;4.742;2022-12-29T00:04:40;0.90;;;0.90;;
10045;SDS011;5063;50.878;4.742;2022-12-29T00:07:06;1.53;;;1.20;;
10045;SDS011;5063;50.878;4.742;2022-12-29T00:09:33;1.33;;;1.23;;
10045;SDS011;5063;50.878;4.742;2022-12-29T00:11:59;1.27;;;1.13;;
10045;SDS011;5063;50.878;4.742;2022-12-29T00:14:27;1.73;;;1.07;;
10045;SDS011;5063;50.878;4.742;2022-12-29T00:17:11;1.87;;;1.07;;
10045;SDS011;5063;50.878;4.742;2022-12-29T00:19:37;1.97;;;1.00;;
10045;SDS011;5063;50.878;4.742;2022-12-29T00:22:29;1.00;;;0.90;;
10045;SDS011;5063;50.878;4.742;2022-12-29T00:25:13;3.17;;;1.20;;
10045;SDS011;5063;50.878;4.742;2022-12-29T00:27:58;1.47;;;0.77;;
10045;SDS011;5063;50.878;4.742;2022-12-29T00:30:42;1.40;;;1.10;;
10045;SDS011;5063;50.878;4.742;2022-12-29T00:33:30;0.97;;;0.97;;
10045;SDS011;5063;50.878;4.742;2022-12-29T00:38:48;1.10;;;1.00;;
10045;SDS011;5063;50.878;4.742;2022-12-29T00:41:37;0.70;;;0.70;;
10045;SDS011;5063;50.878;4.742;2022-12-29T00:44:21;2.20;;;0.97;;
10045;SDS011;5063;50.878;4.742;2022-12-29T00:46:47;1.93;;;0.77;;
10045;SDS011;5063;50.878;4.742;2022-12-29T00:49:13;1.43;;;0.70;;
10045;SDS011;5063;50.878;4.742;2022-12-29T00:52:02;2.23;;;1.20;;
10045;SDS011;5063;50.878;4.742;2022-12-29T00:54:28;1.90;;;1.00;;
10045;SDS011;5063;50.878;4.742;2022-12-29T00:56:56;1.40;;;0.93;;
10045;SDS011;5063;50.878;4.742;2022-12-29T00:59:22;3.37;;;0.93;;
10045;SDS011;5063;50.878;4.742;2022-12-29T01:01:49;1.30;;;0.80;;
10045;SDS011;5063;50.878;4.742;2022-12-29T01:04:16;1.30;;;0.80;;
10045;SDS011;5063;50.878;4.742;2022-12-29T01:06:41;0.87;;;0.80;;
10045;SDS011;5063;50.878;4.742;2022-12-29T01:09:08;3.23;;;1.00;;
10045;SDS011;5063;50.878;4.742;2022-12-29T01:11:53;4.30;;;1.23;;
10045;SDS011;5063;50.878;4.742;2022-12-29T01:14:20;1.17;;;0.80;;
10045;SDS011;5063;50.878;4.742;2022-12-29T01:16:46;4.53;;;0.90;;
10045;SDS011;5063;50.878;4.742;2022-12-29T01:19:12;1.37;;;1.10;;
10045;SDS011;5063;50.878;4.742;2022-12-29T01:21:38;2.77;;;1.00;;
10045;SDS011;5063;50.878;4.742;2022-12-29T01:24:04;1.83;;;1.10;;
10045;SDS011;5063;50.878;4.742;2022-12-29T01:26:30;2.93;;;0.90;;
10045;SDS011;5063;50.878;4.742;2022-12-29T01:28:56;2.80;;;1.10;;
10045;SDS011;5063;50.878;4.742;2022-12-29T01:31:22;1.50;;;0.93;;
10045;SDS011;5063;50.878;4.742;2022-12-29T01:33:48;1.53;;;1.10;;
10045;SDS011;5063;50.878;4.742;2022-12-29T01:36:15;2.50;;;0.93;;
10045;SDS011;5063;50.878;4.742;2022-12-29T01:38:42;2.03;;;1.20;;
10045;SDS011;5063;50.878;4.742;2022-12-29T01:41:08;2.10;;;1.20;;
10045;SDS011;5063;50.878;4.742;2022-12-29T01:43:46;3.10;;;1.30;;
10045;SDS011;5063;50.878;4.742;2022-12-29T01:48:59;1.80;;;1.10;;
10045;SDS011;5063;50.878;4.742;2022-12-29T01:51:40;3.20;;;1.00;;
10045;SDS011;5063;50.878;4.742;2022-12-29T01:54:30;3.33;;;1.20;;
10045;SDS011;5063;50.878;4.742;2022-12-29T01:57:13;3.63;;;1.27;;
10045;SDS011;5063;50.878;4.742;2022-12-29T01:59:48;1.87;;;1.00;;
10045;SDS011;5063;50.878;4.742;2022-12-29T02:02:23;2.53;;;1.27;;
10045;SDS011;5063;50.878;4.742;2022-12-29T02:04:49;1.20;;;0.97;;
10045;SDS011;5063;50.878;4.742;2022-12-29T02:07:18;4.33;;;1.40;;
10045;SDS011;5063;50.878;4.742;2022-12-29T02:09:49;3.43;;;1.00;;
10045;SDS011;5063;50.878;4.742;2022-12-29T02:12:17;1.80;;;1.07;;
10045;SDS011;5063;50.878;4.742;2022-12-29T02:14:45;3.80;;;1.30;;
10045;SDS011;5063;50.878;4.742;2022-12-29T02:36:39;1.80;;;1.00;;
10045;SDS011;5063;50.878;4.742;2022-12-29T02:39:23;3.07;;;1.23;;
10045;SDS011;5063;50.878;4.742;2022-12-29T02:42:21;2.90;;;1.50;;
10045;SDS011;5063;50.878;4.742;2022-12-29T02:44:55;2.73;;;1.10;;
10045;SDS011;5063;50.878;4.742;2022-12-29T02:47:46;1.40;;;1.30;;
10045;SDS011;5063;50.878;4.742;2022-12-29T02:52:54;1.57;;;1.03;;
10045;SDS011;5063;50.878;4.742;2022-12-29T02:55:24;3.20;;;1.20;;
10045;SDS011;5063;50.878;4.742;2022-12-29T02:58:06;2.10;;;1.33;;
10045;SDS011;5063;50.878;4.742;2022-12-29T03:06:46;1.93;;;1.10;;
10045;SDS011;5063;50.878;4.742;2022-12-29T03:15:13;1.83;;;0.50;;
10045;SDS011;5063;50.878;4.742;2022-12-29T03:18:22;1.00;;;0.87;;
10045;SDS011;5063;50.878;4.742;2022-12-29T03:20:55;1.43;;;0.53;;
10045;SDS011;5063;50.878;4.742;2022-12-29T03:23:26;0.87;;;0.50;;
10045;SDS011;5063;50.878;4.742;2022-12-29T03:25:54;0.63;;;0.40;;
10045;SDS011;5063;50.878;4.742;2022-12-29T03:28:23;1.83;;;0.67;;
10045;SDS011;5063;50.878;4.742;2022-12-29T03:30:55;1.83;;;0.40;;
10045;SDS011;5063;50.878;4.742;2022-12-29T03:33:24;2.20;;;0.57;;
10045;SDS011;5063;50.878;4.742;2022-12-29T03:35:54;0.53;;;0.53;;
10045;SDS011;5063;50.878;4.742;2022-12-29T03:41:01;1.50;;;0.70;;
10045;SDS011;5063;50.878;4.742;2022-12-29T03:43:32;2.10;;;0.43;;
10045;SDS011;5063;50.878;4.742;2022-12-29T03:45:59;1.50;;;0.60;;
10045;SDS011;5063;50.878;4.742;2022-12-29T03:48:25;1.07;;;0.47;;
10045;SDS011;5063;50.878;4.742;2022-12-29T03:50:51;5.53;;;1.17;;
10045;SDS011;5063;50.878;4.742;2022-12-29T03:53:16;2.77;;;0.80;;
10045;SDS011;5063;50.878;4.742;2022-12-29T03:55:42;3.53;;;0.70;;
10045;SDS011;5063;50.878;4.742;2022-12-29T03:58:08;3.10;;;1.00;;
10045;SDS011;5063;50.878;4.742;2022-12-29T04:00:34;4.77;;;1.27;;
10045;SDS011;5063;50.878;4.742;2022-12-29T04:03:00;3.20;;;1.13;;
10045;SDS011;5063;50.878;4.742;2022-12-29T04:05:25;3.40;;;1.00;;
10045;SDS011;5063;50.878;4.742;2022-12-29T04:07:51;2.17;;;0.97;;
10045;SDS011;5063;50.878;4.742;2022-12-29T04:10:17;3.17;;;1.17;;
10045;SDS011;5063;50.878;4.742;2022-12-29T04:12:43;3.87;;;1.33;;
10045;SDS011;5063;50.878;4.742;2022-12-29T04:15:10;4.60;;;1.23;;
10045;SDS011;5063;50.878;4.742;2022-12-29T04:17:36;4.20;;;1.23;;
10045;SDS011;5063;50.878;4.742;2022-12-29T04:20:02;6.70;;;1.70;;
10045;SDS011;5063;50.878;4.742;2022-12-29T04:22:46;6.33;;;1.67;;
10045;SDS011;5063;50.878;4.742;2022-12-29T04:25:12;4.60;;;1.77;;
10045;SDS011;5063;50.878;4.742;2022-12-29T04:27:38;3.47;;;0.90;;
10045;SDS011;5063;50.878;4.742;2022-12-29T04:30:04;4.67;;;1.10;;
10045;SDS011;5063;50.878;4.742;2022-12-29T04:32:30;2.97;;;1.27;;
10045;SDS011;5063;50.878;4.742;2022-12-29T04:34:56;2.87;;;1.10;;
10045;SDS011;5063;50.878;4.742;2022-12-29T04:37:22;2.80;;;0.97;;
10045;SDS011;5063;50.878;4.742;2022-12-29T04:39:48;5.03;;;1.40;;
10045;SDS011;5063;50.878;4.742;2022-12-29T04:42:14;0.90;;;0.70;;
10045;SDS011;5063;50.878;4.742;2022-12-29T04:44:40;2.77;;;0.90;;
10045;SDS011;5063;50.878;4.742;2022-12-29T04:47:05;3.17;;;1.00;;
10045;SDS011;5063;50.878;4.742;2022-12-29T04:49:31;4.73;;;0.90;;
10045;SDS011;5063;50.878;4.742;2022-12-29T04:51:57;3.03;;;0.90;;
10045;SDS011;5063;50.878;4.742;2022-12-29T04:54:23;3.10;;;1.27;;
10045;SDS011;5063;50.878;4.742;2022-12-29T04:56:48;1.40;;;0.63;;
10045;SDS011;5063;50.878;4.742;2022-12-29T04:59:14;3.83;;;1.17;;
10045;SDS011;5063;50.878;4.742;2022-12-29T05:01:40;4.67;;;1.00;;
10045;SDS011;5063;50.878;4.742;2022-12-29T05:04:05;3.23;;;1.30;;
10045;SDS011;5063;50.878;4.742;2022-12-29T05:06:31;6.50;;;1.93;;
10045;SDS011;5063;50.878;4.742;2022-12-29T05:08:57;2.47;;;0.90;;
10045;SDS011;5063;50.878;4.742;2022-12-29T05:11:22;4.03;;;1.23;;
10045;SDS011;5063;50.878;4.742;2022-12-29T05:13:48;4.67;;;1.47;;
10045;SDS011;5063;50.878;4.742;2022-12-29T05:16:14;2.83;;;1.23;;
10045;SDS011;5063;50.878;4.742;2022-12-29T05:18:40;7.33;;;1.63;;
10045;SDS011;5063;50.878;4.742;2022-12-29T05:21:05;7.87;;;1.80;;
10045;SDS011;5063;50.878;4.742;2022-12-29T05:23:31;4.60;;;1.13;;
10045;SDS011;5063;50.878;4.742;2022-12-29T05:25:57;6.00;;;1.20;;
10045;SDS011;5063;50.878;4.742;2022-12-29T05:28:22;6.10;;;1.37;;
10045;SDS011;5063;50.878;4.742;2022-12-29T05:30:49;6.20;;;1.33;;
10045;SDS011;5063;50.878;4.742;2022-12-29T05:33:15;4.37;;;1.80;;
10045;SDS011;5063;50.878;4.742;2022-12-29T05:35:42;2.40;;;1.00;;
10045;SDS011;5063;50.878;4.742;2022-12-29T05:38:08;3.27;;;1.50;;
10045;SDS011;5063;50.878;4.742;2022-12-29T05:40:34;5.57;;;1.30;;
10045;SDS011;5063;50.878;4.742;2022-12-29T05:43:00;5.60;;;1.63;;
10045;SDS011;5063;50.878;4.742;2022-12-29T05:45:26;9.03;;;1.60;;
10045;SDS011;5063;50.878;4.742;2022-12-29T05:47:52;6.37;;;1.30;;
10045;SDS011;5063;50.878;4.742;2022-12-29T05:50:18;4.10;;;1.50;;
10045;SDS011;5063;50.878;4.742;2022-12-29T05:52:43;7.37;;;1.80;;
10045;SDS011;5063;50.878;4.742;2022-12-29T05:55:09;4.27;;;1.63;;
10045;SDS011;5063;50.878;4.742;2022-12-29T05:57:36;1.83;;;1.00;;
10045;SDS011;5063;50.878;4.742;2022-12-29T06:00:03;4.27;;;1.67;;
10045;SDS011;5063;50.878;4.742;2022-12-29T06:02:30;6.17;;;2.00;;
10045;SDS011;5063;50.878;4.742;2022-12-29T06:04:55;4.63;;;1.80;;
10045;SDS011;5063;50.878;4.742;2022-12-29T06:07:21;7.03;;;1.60;;
10045;SDS011;5063;50.878;4.742;2022-12-29T06:09:47;2.03;;;1.20;;
10045;SDS011;5063;50.878;4.742;2022-12-29T06:12:12;3.70;;;1.50;;
10045;SDS011;5063;50.878;4.742;2022-12-29T06:14:38;5.07;;;1.30;;
10045;SDS011;5063;50.878;4.742;2022-12-29T06:17:04;4.67;;;1.30;;
10045;SDS011;5063;50.878;4.742;2022-12-29T06:19:30;10.93;;;2.40;;
10045;SDS011;5063;50.878;4.742;2022-12-29T06:21:56;10.33;;;2.00;;
10045;SDS011;5063;50.878;4.742;2022-12-29T06:24:22;4.13;;;1.60;;
10045;SDS011;5063;50.878;4.742;2022-12-29T06:26:47;7.93;;;1.77;;
10045;SDS011;5063;50.878;4.742;2022-12-29T06:29:13;8.00;;;1.90;;
10045;SDS011;5063;50.878;4.742;2022-12-29T06:31:42;6.87;;;1.70;;
10045;SDS011;5063;50.878;4.742;2022-12-29T06:34:11;7.90;;;1.40;;
10045;SDS011;5063;50.878;4.742;2022-12-29T06:36:37;6.63;;;1.60;;
10045;SDS011;5063;50.878;4.742;2022-12-29T06:39:03;7.17;;;1.60;;
10045;SDS011;5063;50.878;4.742;2022-12-29T06:41:29;6.83;;;1.93;;
10045;SDS011;5063;50.878;4.742;2022-12-29T06:43:55;6.60;;;1.60;;
10045;SDS011;5063;50.878;4.742;2022-12-29T06:46:21;7.47;;;1.70;;
10045;SDS011;5063;50.878;4.742;2022-12-29T06:48:46;3.33;;;1.40;;
10045;SDS011;5063;50.878;4.742;2022-12-29T06:51:12;5.53;;;1.83;;
10045;SDS011;5063;50.878;4.742;2022-12-29T06:53:38;3.47;;;1.53;;
10045;SDS011;5063;50.878;4.742;2022-12-29T06:56:04;7.77;;;2.10;;
10045;SDS011;5063;50.878;4.742;2022-12-29T06:58:30;4.83;;;1.90;;
10045;SDS011;5063;50.878;4.742;2022-12-29T07:00:55;7.33;;;2.03;;
10045;SDS011;5063;50.878;4.742;2022-12-29T07:03:21;4.87;;;1.57;;
10045;SDS011;5063;50.878;4.742;2022-12-29T07:05:47;6.00;;;1.30;;
10045;SDS011;5063;50.878;4.742;2022-12-29T07:08:13;7.10;;;2.07;;
10045;SDS011;5063;50.878;4.742;2022-12-29T07:10:39;9.50;;;1.97;;
10045;SDS011;5063;50.878;4.742;2022-12-29T07:13:05;6.03;;;1.80;;
10045;SDS011;5063;50.878;4.742;2022-12-29T07:15:32;5.30;;;1.77;;
10045;SDS011;5063;50.878;4.742;2022-12-29T07:17:59;4.73;;;1.70;;
10045;SDS011;5063;50.878;4.742;2022-12-29T07:20:25;5.23;;;1.47;;
10045;SDS011;5063;50.878;4.742;2022-12-29T07:22:51;6.67;;;1.90;;
10045;SDS011;5063;50.878;4.742;2022-12-29T07:25:16;5.67;;;1.73;;
10045;SDS011;5063;50.878;4.742;2022-12-29T07:27:42;5.30;;;1.77;;
10045;SDS011;5063;50.878;4.742;2022-12-29T07:30:08;5.13;;;1.93;;
10045;SDS011;5063;50.878;4.742;2022-12-29T07:32:34;7.57;;;2.67;;
10045;SDS011;5063;50.878;4.742;2022-12-29T07:35:00;5.47;;;1.77;;
10045;SDS011;5063;50.878;4.742;2022-12-29T07:37:26;7.07;;;1.77;;
10045;SDS011;5063;50.878;4.742;2022-12-29T07:39:53;4.17;;;2.20;;
10045;SDS011;5063;50.878;4.742;2022-12-29T07:42:19;5.10;;;1.53;;
10045;SDS011;5063;50.878;4.742;2022-12-29T07:44:44;3.97;;;1.57;;
10045;SDS011;5063;50.878;4.742;2022-12-29T07:47:10;6.00;;;1.90;;
10045;SDS011;5063;50.878;4.742;2022-12-29T07:49:36;8.63;;;2.20;;
10045;SDS011;5063;50.878;4.742;2022-12-29T07:52:02;5.70;;;1.60;;
10045;SDS011;5063;50.878;4.742;2022-12-29T07:54:28;6.40;;;1.70;;
10045;SDS011;5063;50.878;4.742;2022-12-29T07:56:53;8.77;;;2.20;;
10045;SDS011;5063;50.878;4.742;2022-12-29T07:59:19;4.83;;;1.60;;
10045;SDS011;5063;50.878;4.742;2022-12-29T08:01:45;8.20;;;1.73;;
10045;SDS011;5063;50.878;4.742;2022-12-29T08:04:11;10.43;;;2.20;;
10045;SDS011;5063;50.878;4.742;2022-12-29T08:06:37;7.13;;;2.03;;
10045;SDS011;5063;50.878;4.742;2022-12-29T08:09:03;9.43;;;1.93;;
10045;SDS011;5063;50.878;4.742;2022-12-29T08:11:29;8.57;;;1.47;;
10045;SDS011;5063;50.878;4.742;2022-12-29T08:13:55;4.67;;;2.00;;
10045;SDS011;5063;50.878;4.742;2022-12-29T08:16:20;7.63;;;1.73;;
10045;SDS011;5063;50.878;4.742;2022-12-29T08:18:46;8.13;;;2.10;;
10045;SDS011;5063;50.878;4.742;2022-12-29T08:21:12;7.00;;;1.57;;
10045;SDS011;5063;50.878;4.742;2022-12-29T08:23:38;7.33;;;1.83;;
10045;SDS011;5063;50.878;4.742;2022-12-29T08:26:04;4.63;;;2.10;;
10045;SDS011;5063;50.878;4.742;2022-12-29T08:28:31;6.60;;;1.73;;
10045;SDS011;5063;50.878;4.742;2022-12-29T08:30:58;5.27;;;1.40;;
10045;SDS011;5063;50.878;4.742;2022-12-29T08:33:24;6.37;;;1.93;;
10045;SDS011;5063;50.878;4.742;2022-12-29T08:35:50;4.37;;;1.50;;
10045;SDS011;5063;50.878;4.742;2022-12-29T08:38:16;6.77;;;2.13;;
10045;SDS011;5063;50.878;4.742;2022-12-29T08:40:43;7.10;;;1.70;;
10045;SDS011;5063;50.878;4.742;2022-12-29T08:43:09;5.33;;;2.37;;
10045;SDS011;5063;50.878;4.742;2022-12-29T08:45:35;4.27;;;1.77;;
10045;SDS011;5063;50.878;4.742;2022-12-29T08:48:01;5.43;;;1.90;;
10045;SDS011;5063;50.878;4.742;2022-12-29T08:50:27;9.40;;;1.90;;
10045;SDS011;5063;50.878;4.742;2022-12-29T08:52:53;4.20;;;1.47;;
10045;SDS011;5063;50.878;4.742;2022-12-29T08:55:18;5.47;;;1.50;;
10045;SDS011;5063;50.878;4.742;2022-12-29T08:57:44;6.37;;;1.83;;
10045;SDS011;5063;50.878;4.742;2022-12-29T09:00:10;6.87;;;1.80;;
10045;SDS011;5063;50.878;4.742;2022-12-29T09:02:36;7.97;;;1.67;;
10045;SDS011;5063;50.878;4.742;2022-12-29T09:05:02;9.90;;;2.10;;
10045;SDS011;5063;50.878;4.742;2022-12-29T09:07:28;6.20;;;1.87;;
10045;SDS011;5063;50.878;4.742;2022-12-29T09:09:53;9.97;;;2.10;;
10045;SDS011;5063;50.878;4.742;2022-12-29T09:12:19;9.50;;;2.17;;
10045;SDS011;5063;50.878;4.742;2022-12-29T09:14:48;10.93;;;2.77;;
10045;SDS011;5063;50.878;4.742;2022-12-29T09:17:14;4.97;;;1.77;;
10045;SDS011;5063;50.878;4.742;2022-12-29T09:19:58;6.60;;;1.73;;
10045;SDS011;5063;50.878;4.742;2022-12-29T09:22:24;9.90;;;2.47;;
10045;SDS011;5063;50.878;4.742;2022-12-29T09:24:49;9.33;;;2.10;;
10045;SDS011;5063;50.878;4.742;2022-12-29T09:27:15;7.23;;;2.47;;
10045;SDS011;5063;50.878;4.742;2022-12-29T09:29:41;9.47;;;2.23;;
10045;SDS011;5063;50.878;4.742;2022-12-29T09:32:07;6.03;;;2.33;;
10045;SDS011;5063;50.878;4.742;2022-12-29T09:34:32;10.23;;;2.17;;
10045;SDS011;5063;50.878;4.742;2022-12-29T09:36:58;8.07;;;1.93;;
10045;SDS011;5063;50.878;4.742;2022-12-29T09:39:24;8.37;;;1.90;;
10045;SDS011;5063;50.878;4.742;2022-12-29T09:42:11;6.23;;;1.90;;
10045;SDS011;5063;50.878;4.742;2022-12-29T09:47:05;10.60;;;1.83;;
10045;SDS011;5063;50.878;4.742;2022-12-29T09:49:43;5.53;;;2.17;;
10045;SDS011;5063;50.878;4.742;2022-12-29T09:52:25;10.80;;;2.70;;
10045;SDS011;5063;50.878;4.742;2022-12-29T09:55:30;10.60;;;2.10;;
10045;SDS011;5063;50.878;4.742;2022-12-29T10:00:47;9.27;;;2.47;;
10045;SDS011;5063;50.878;4.742;2022-12-29T10:03:24;8.57;;;2.40;;
10045;SDS011;5063;50.878;4.742;2022-12-29T10:06:06;6.60;;;1.73;;
10045;SDS011;5063;50.878;4.742;2022-12-29T10:08:44;7.57;;;2.23;;
10045;SDS011;5063;50.878;4.742;2022-12-29T10:11:21;5.37;;;2.00;;
10045;SDS011;5063;50.878;4.742;2022-12-29T10:16:37;3.37;;;1.73;;
10045;SDS011;5063;50.878;4.742;2022-12-29T10:19:24;8.73;;;2.40;;
10045;SDS011;5063;50.878;4.742;2022-12-29T10:25:11;4.50;;;1.57;;
10045;SDS011;5063;50.878;4.742;2022-12-29T10:27:41;10.10;;;2.67;;
10045;SDS011;5063;50.878;4.742;2022-12-29T10:30:11;7.73;;;2.10;;
10045;SDS011;5063;50.878;4.742;2022-12-29T10:32:48;11.90;;;2.07;;
10045;SDS011;5063;50.878;4.742;2022-12-29T10:35:25;7.23;;;2.00;;
10045;SDS011;5063;50.878;4.742;2022-12-29T10:40:57;10.90;;;2.27;;
10045;SDS011;5063;50.878;4.742;2022-12-29T10:43:35;11.93;;;2.40;;
10045;SDS011;5063;50.878;4.742;2022-12-29T10:46:15;8.30;;;2.50;;
10045;SDS011;5063;50.878;4.742;2022-12-29T10:48:46;6.97;;;2.13;;
10045;SDS011;5063;50.878;4.742;2022-12-29T10:51:21;6.77;;;2.27;;
10045;SDS011;5063;50.878;4.742;2022-12-29T10:58:51;5.73;;;1.70;;
10045;SDS011;5063;50.878;4.742;2022-12-29T11:01:22;7.90;;;2.30;;
10045;SDS011;5063;50.878;4.742;2022-12-29T11:04:02;5.00;;;1.60;;
10045;SDS011;5063;50.878;4.742;2022-12-29T11:06:31;5.47;;;1.60;;
10045;SDS011;5063;50.878;4.742;2022-12-29T11:09:14;6.20;;;1.90;;
10045;SDS011;5063;50.878;4.742;2022-12-29T11:11:43;8.63;;;2.33;;
10045;SDS011;5063;50.878;4.742;2022-12-29T11:16:42;9.87;;;2.80;;
10045;SDS011;5063;50.878;4.742;2022-12-29T11:19:20;7.87;;;2.10;;
10045;SDS011;5063;50.878;4.742;2022-12-29T11:21:48;8.50;;;2.30;;
10045;SDS011;5063;50.878;4.742;2022-12-29T11:24:21;7.10;;;2.47;;
10045;SDS011;5063;50.878;4.742;2022-12-29T11:26:53;9.00;;;2.10;;
10045;SDS011;5063;50.878;4.742;2022-12-29T11:29:39;8.40;;;2.47;;
10045;SDS011;5063;50.878;4.742;2022-12-29T11:34:44;8.70;;;2.50;;
10045;SDS011;5063;50.878;4.742;2022-12-29T11:40:06;4.90;;;1.83;;
10045;SDS011;5063;50.878;4.742;2022-12-29T11:45:16;10.07;;;2.57;;
10045;SDS011;5063;50.878;4.742;2022-12-29T11:47:44;3.50;;;2.00;;
10045;SDS011;5063;50.878;4.742;2022-12-29T11:50:17;7.70;;;2.13;;
10045;SDS011;5063;50.878;4.742;2022-12-29T11:52:45;9.77;;;1.63;;
10045;SDS011;5063;50.878;4.742;2022-12-29T11:55:17;9.63;;;2.20;;
10045;SDS011;5063;50.878;4.742;2022-12-29T11:57:47;7.53;;;2.10;;
10045;SDS011;5063;50.878;4.742;2022-12-29T12:00:15;8.67;;;2.40;;
10045;SDS011;5063;50.878;4.742;2022-12-29T12:08:03;8.27;;;2.17;;
10045;SDS011;5063;50.878;4.742;2022-12-29T12:10:43;5.80;;;2.13;;
10045;SDS011;5063;50.878;4.742;2022-12-29T12:13:34;6.37;;;1.80;;
10045;SDS011;5063;50.878;4.742;2022-12-29T12:19:34;7.30;;;2.07;;
10045;SDS011;5063;50.878;4.742;2022-12-29T12:27:39;7.50;;;2.70;;
10045;SDS011;5063;50.878;4.742;2022-12-29T12:30:15;7.20;;;2.50;;
10045;SDS011;5063;50.878;4.742;2022-12-29T12:32:52;7.03;;;2.00;;
10045;SDS011;5063;50.878;4.742;2022-12-29T12:36:00;10.77;;;2.20;;
10045;SDS011;5063;50.878;4.742;2022-12-29T12:44:12;8.40;;;2.20;;
10045;SDS011;5063;50.878;4.742;2022-12-29T12:51:53;11.87;;;2.93;;
10045;SDS011;5063;50.878;4.742;2022-12-29T13:07:58;3.33;;;1.57;;
10045;SDS011;5063;50.878;4.742;2022-12-29T13:10:30;10.20;;;2.20;;
10045;SDS011;5063;50.878;4.742;2022-12-29T13:16:23;7.87;;;2.03;;
10045;SDS011;5063;50.878;4.742;2022-12-29T13:19:10;7.00;;;2.03;;
10045;SDS011;5063;50.878;4.742;2022-12-29T13:29:41;9.63;;;2.27;;
10045;SDS011;5063;50.878;4.742;2022-12-29T13:32:15;7.93;;;2.93;;
10045;SDS011;5063;50.878;4.742;2022-12-29T13:37:27;7.90;;;2.40;;
10045;SDS011;5063;50.878;4.742;2022-12-29T13:40:18;6.70;;;1.97;;
10045;SDS011;5063;50.878;4.742;2022-12-29T13:42:44;5.17;;;2.13;;
10045;SDS011;5063;50.878;4.742;2022-12-29T13:45:13;8.00;;;2.00;;
10045;SDS011;5063;50.878;4.742;2022-12-29T13:47:43;11.47;;;2.43;;
10045;SDS011;5063;50.878;4.742;2022-12-29T13:50:29;9.10;;;2.87;;
10045;SDS011;5063;50.878;4.742;2022-12-29T13:53:02;6.03;;;1.83;;
10045;SDS011;5063;50.878;4.742;2022-12-29T13:58:15;11.03;;;2.17;;
10045;SDS011;5063;50.878;4.742;2022-12-29T14:00:51;8.00;;;3.03;;
10045;SDS011;5063;50.878;4.742;2022-12-29T14:06:20;10.73;;;2.30;;
10045;SDS011;5063;50.878;4.742;2022-12-29T14:08:50;10.67;;;2.57;;
10045;SDS011;5063;50.878;4.742;2022-12-29T14:11:17;10.03;;;2.20;;
10045;SDS011;5063;50.878;4.742;2022-12-29T14:13:46;6.73;;;2.03;;
10045;SDS011;5063;50.878;4.742;2022-12-29T14:16:30;9.60;;;2.53;;
10045;SDS011;5063;50.878;4.742;2022-12-29T14:19:03;8.90;;;2.60;;
10045;SDS011;5063;50.878;4.742;2022-12-29T14:21:34;7.43;;;2.10;;
10045;SDS011;5063;50.878;4.742;2022-12-29T14:26:59;10.17;;;2.40;;
10045;SDS011;5063;50.878;4.742;2022-12-29T14:31:54;7.87;;;2.50;;
10045;SDS011;5063;50.878;4.742;2022-12-29T14:42:04;8.60;;;2.70;;
10045;SDS011;5063;50.878;4.742;2022-12-29T14:44:33;10.27;;;2.43;;
10045;SDS011;5063;50.878;4.742;2022-12-29T14:47:11;10.67;;;2.50;;
10045;SDS011;5063;50.878;4.742;2022-12-29T14:49:56;11.80;;;2.77;;
10045;SDS011;5063;50.878;4.742;2022-12-29T14:52:32;11.00;;;2.60;;
10045;SDS011;5063;50.878;4.742;2022-12-29T14:55:38;10.43;;;1.93;;
10045;SDS011;5063;50.878;4.742;2022-12-29T14:58:52;5.47;;;2.00;;
10045;SDS011;5063;50.878;4.742;2022-12-29T15:00:56;7.57;;;2.00;;
10045;SDS011;5063;50.878;4.742;2022-12-29T15:03:24;14.03;;;2.93;;
10045;SDS011;5063;50.878;4.742;2022-12-29T15:05:54;8.63;;;2.43;;
10045;SDS011;5063;50.878;4.742;2022-12-29T15:08:24;10.47;;;2.43;;
10045;SDS011;5063;50.878;4.742;2022-12-29T15:10:53;10.37;;;2.50;;
10045;SDS011;5063;50.878;4.742;2022-12-29T15:13:24;10.90;;;2.90;;
10045;SDS011;5063;50.878;4.742;2022-12-29T15:15:58;10.30;;;2.57;;
10045;SDS011;5063;50.878;4.742;2022-12-29T15:18:25;11.27;;;2.47;;
10045;SDS011;5063;50.878;4.742;2022-12-29T15:20:54;8.90;;;2.70;;
10045;SDS011;5063;50.878;4.742;2022-12-29T15:23:23;12.53;;;3.00;;
10045;SDS011;5063;50.878;4.742;2022-12-29T15:25:54;10.20;;;2.50;;
10045;SDS011;5063;50.878;4.742;2022-12-29T15:28:22;12.47;;;2.53;;
10045;SDS011;5063;50.878;4.742;2022-12-29T15:33:43;12.27;;;2.73;;
10045;SDS011;5063;50.878;4.742;2022-12-29T15:36:25;7.50;;;1.80;;
10045;SDS011;5063;50.878;4.742;2022-12-29T15:38:52;9.03;;;1.60;;
10045;SDS011;5063;50.878;4.742;2022-12-29T15:41:36;5.97;;;1.93;;
10045;SDS011;5063;50.878;4.742;2022-12-29T15:47:11;3.60;;;1.63;;
10045;SDS011;5063;50.878;4.742;2022-12-29T15:53:18;2.57;;;1.20;;
10045;SDS011;5063;50.878;4.742;2022-12-29T15:56:06;4.43;;;1.27;;
10045;SDS011;5063;50.878;4.742;2022-12-29T15:58:42;4.67;;;1.17;;
10045;SDS011;5063;50.878;4.742;2022-12-29T16:01:35;3.37;;;1.30;;
10045;SDS011;5063;50.878;4.742;2022-12-29T16:04:03;4.77;;;2.03;;
10045;SDS011;5063;50.878;4.742;2022-12-29T16:06:36;4.17;;;1.60;;
10045;SDS011;5063;50.878;4.742;2022-12-29T16:09:32;6.47;;;1.70;;
10045;SDS011;5063;50.878;4.742;2022-12-29T16:12:22;3.63;;;1.47;;
10045;SDS011;5063;50.878;4.742;2022-12-29T16:14:51;4.67;;;1.70;;
10045;SDS011;5063;50.878;4.742;2022-12-29T16:17:32;3.13;;;1.70;;
10045;SDS011;5063;50.878;4.742;2022-12-29T16:20:02;4.60;;;1.97;;
10045;SDS011;5063;50.878;4.742;2022-12-29T16:22:39;6.03;;;1.80;;
10045;SDS011;5063;50.878;4.742;2022-12-29T16:25:15;5.43;;;1.43;;
10045;SDS011;5063;50.878;4.742;2022-12-29T16:27:43;5.43;;;2.40;;
10045;SDS011;5063;50.878;4.742;2022-12-29T16:30:17;5.77;;;2.57;;
10045;SDS011;5063;50.878;4.742;2022-12-29T16:32:48;6.40;;;2.27;;
10045;SDS011;5063;50.878;4.742;2022-12-29T16:35:22;9.27;;;2.40;;
10045;SDS011;5063;50.878;4.742;2022-12-29T16:38:10;7.67;;;2.93;;
10045;SDS011;5063;50.878;4.742;2022-12-29T16:41:01;8.93;;;2.87;;
10045;SDS011;5063;50.878;4.742;2022-12-29T16:48:25;9.60;;;3.37;;
10045;SDS011;5063;50.878;4.742;2022-12-29T16:53:54;8.63;;;3.37;;
10045;SDS011;5063;50.878;4.742;2022-12-29T16:56:24;7.33;;;2.57;;
10045;SDS011;5063;50.878;4.742;2022-12-29T16:59:09;10.37;;;3.10;;
10045;SDS011;5063;50.878;4.742;2022-12-29T17:01:41;14.47;;;2.87;;
10045;SDS011;5063;50.878;4.742;2022-12-29T17:04:08;18.30;;;3.97;;
10045;SDS011;5063;50.878;4.742;2022-12-29T17:06:36;19.73;;;3.30;;
10045;SDS011;5063;50.878;4.742;2022-12-29T17:09:02;14.97;;;3.20;;
10045;SDS011;5063;50.878;4.742;2022-12-29T17:11:41;10.93;;;3.17;;
10045;SDS011;5063;50.878;4.742;2022-12-29T17:19:36;11.23;;;2.87;;
10045;SDS011;5063;50.878;4.742;2022-12-29T17:22:08;17.13;;;3.37;;
10045;SDS011;5063;50.878;4.742;2022-12-29T17:24:36;11.27;;;3.37;;
10045;SDS011;5063;50.878;4.742;2022-12-29T17:27:02;12.90;;;3.20;;
10045;SDS011;5063;50.878;4.742;2022-12-29T17:29:38;11.30;;;2.87;;
10045;SDS011;5063;50.878;4.742;2022-12-29T17:32:06;15.73;;;3.97;;
10045;SDS011;5063;50.878;4.742;2022-12-29T17:34:36;13.40;;;3.33;;
10045;SDS011;5063;50.878;4.742;2022-12-29T17:37:09;8.90;;;2.70;;
10045;SDS011;5063;50.878;4.742;2022-12-29T17:39:55;14.87;;;3.93;;
10045;SDS011;5063;50.878;4.742;2022-12-29T17:42:21;16.30;;;3.17;;
10045;SDS011;5063;50.878;4.742;2022-12-29T17:44:47;8.73;;;2.50;;
10045;SDS011;5063;50.878;4.742;2022-12-29T17:47:13;12.23;;;3.30;;
10045;SDS011;5063;50.878;4.742;2022-12-29T17:49:40;12.03;;;2.97;;
10045;SDS011;5063;50.878;4.742;2022-12-29T17:52:13;12.53;;;3.40;;
10045;SDS011;5063;50.878;4.742;2022-12-29T17:54:50;13.57;;;3.07;;
10045;SDS011;5063;50.878;4.742;2022-12-29T17:57:17;19.20;;;3.43;;
10045;SDS011;5063;50.878;4.742;2022-12-29T17:59:44;9.17;;;2.53;;
10045;SDS011;5063;50.878;4.742;2022-12-29T18:02:26;13.37;;;3.30;;
10045;SDS011;5063;50.878;4.742;2022-12-29T18:04:55;10.10;;;3.13;;
10045;SDS011;5063;50.878;4.742;2022-12-29T18:07:21;9.17;;;2.90;;
10045;SDS011;5063;50.878;4.742;2022-12-29T18:09:49;10.77;;;2.43;;